createdAt,value
2019-05-05T00:01:40.954Z,4.43
2019-05-05T00:04:34.752Z,4.17
2019-05-05T00:07:05.395Z,4.27
2019-05-05T00:09:35.659Z,4.30
2019-05-05T00:12:25.200Z,4.27
2019-05-05T00:15:20.880Z,3.93
2019-05-05T00:17:55.291Z,3.73
2019-05-05T00:20:27.234Z,4.13
2019-05-05T00:23:01.282Z,4.10
2019-05-05T00:25:31.683Z,3.73
2019-05-05T00:28:02.390Z,3.80
2019-05-05T00:30:34.583Z,3.90
2019-05-05T00:33:07.089Z,3.60
2019-05-05T00:35:45.232Z,3.60
2019-05-05T00:38:24.869Z,3.97
2019-05-05T00:40:58.170Z,3.50
2019-05-05T00:43:31.610Z,3.60
2019-05-05T00:46:07.626Z,3.87
2019-05-05T00:48:46.122Z,3.30
2019-05-05T00:51:19.379Z,3.90
2019-05-05T00:53:55.489Z,3.70
2019-05-05T00:56:28.464Z,3.50
2019-05-05T00:59:04.563Z,3.50
2019-05-05T01:02:06.647Z,3.37
2019-05-05T01:04:52.268Z,3.40
2019-05-05T01:07:24.755Z,3.40
2019-05-05T01:09:58.945Z,3.20
2019-05-05T01:12:30.011Z,3.30
2019-05-05T01:15:01.955Z,3.00
2019-05-05T01:17:34.504Z,3.10
2019-05-05T01:20:10.690Z,3.10
2019-05-05T01:22:40.990Z,2.87
2019-05-05T01:25:14.746Z,2.80
2019-05-05T01:27:46.523Z,2.90
2019-05-05T01:30:26.387Z,2.87
2019-05-05T01:33:05.511Z,2.80
2019-05-05T01:35:41.981Z,2.67
2019-05-05T01:38:18.685Z,2.70
2019-05-05T01:40:57.315Z,2.73
2019-05-05T01:43:27.702Z,2.90
2019-05-05T01:45:59.225Z,2.90
2019-05-05T01:48:30.882Z,2.80
2019-05-05T01:51:05.125Z,2.70
2019-05-05T01:53:41.410Z,2.70
2019-05-05T01:56:12.781Z,2.60
2019-05-05T01:58:46.707Z,2.40
2019-05-05T02:01:24.768Z,2.60
2019-05-05T02:04:00.408Z,2.67
2019-05-05T02:06:32.106Z,2.47
2019-05-05T02:09:05.282Z,2.47
2019-05-05T02:11:41.085Z,2.10
2019-05-05T02:14:15.428Z,2.20
2019-05-05T02:16:45.922Z,2.10
2019-05-05T02:19:18.953Z,2.43
2019-05-05T02:21:49.734Z,2.10
2019-05-05T02:24:25.290Z,2.00
2019-05-05T02:26:59.074Z,2.10
2019-05-05T02:29:35.451Z,2.13
2019-05-05T02:32:25.665Z,2.00
2019-05-05T02:35:06.208Z,2.30
2019-05-05T02:37:37.677Z,2.17
2019-05-05T02:40:10.401Z,1.90
2019-05-05T02:42:45.970Z,2.20
2019-05-05T02:45:44.169Z,1.90
2019-05-05T02:48:17.007Z,1.90
2019-05-05T02:51:02.406Z,1.70
2019-05-05T02:53:44.662Z,1.77
2019-05-05T02:56:24.050Z,2.03
2019-05-05T02:58:58.674Z,1.80
2019-05-05T03:01:35.629Z,1.80
2019-05-05T03:04:10.795Z,1.80
2019-05-05T03:06:44.702Z,1.60
2019-05-05T03:09:19.027Z,1.80
2019-05-05T03:11:54.247Z,1.50
2019-05-05T03:14:26.943Z,1.70
2019-05-05T03:16:59.541Z,1.60
2019-05-05T03:19:30.482Z,1.40
2019-05-05T03:22:04.371Z,1.40
2019-05-05T03:24:39.087Z,1.60
2019-05-05T03:27:14.365Z,1.73
2019-05-05T03:29:48.769Z,1.43
2019-05-05T03:32:25.516Z,1.40
2019-05-05T03:34:57.658Z,1.47
2019-05-05T03:37:28.609Z,1.40
2019-05-05T03:40:09.690Z,1.60
2019-05-05T03:42:53.772Z,1.40
2019-05-05T03:45:44.602Z,1.40
2019-05-05T03:48:16.114Z,1.40
2019-05-05T03:50:46.421Z,1.30
2019-05-05T03:53:21.326Z,1.47
2019-05-05T03:55:54.366Z,1.50
2019-05-05T03:58:29.290Z,1.40
2019-05-05T04:02:05.309Z,1.40
2019-05-05T04:04:44.038Z,1.30
2019-05-05T04:07:19.456Z,1.20
2019-05-05T04:09:50.359Z,1.20
2019-05-05T04:12:24.164Z,1.30
2019-05-05T04:14:59.157Z,1.20
2019-05-05T04:17:47.205Z,1.20
2019-05-05T04:20:40.720Z,1.20
2019-05-05T04:23:11.403Z,1.10
2019-05-05T04:25:45.055Z,1.13
2019-05-05T04:28:15.742Z,1.23
2019-05-05T04:30:50.197Z,1.00
2019-05-05T04:33:28.051Z,1.10
2019-05-05T04:36:09.478Z,1.30
2019-05-05T04:38:40.402Z,1.13
2019-05-05T04:41:10.996Z,1.20
2019-05-05T04:43:44.274Z,1.17
2019-05-05T04:46:16.703Z,1.10
2019-05-05T04:49:00.298Z,1.10
2019-05-05T04:51:47.047Z,1.10
2019-05-05T04:54:18.134Z,1.20
2019-05-05T04:56:49.178Z,1.03
2019-05-05T04:59:23.516Z,1.00
2019-05-05T05:01:57.190Z,1.10
2019-05-05T05:04:48.371Z,1.00
2019-05-05T05:07:21.566Z,0.97
2019-05-05T05:09:54.976Z,1.00
2019-05-05T05:12:27.034Z,1.00
2019-05-05T05:14:57.758Z,0.83
2019-05-05T05:17:44.362Z,0.90
2019-05-05T05:20:18.526Z,0.87
2019-05-05T05:22:54.311Z,0.97
2019-05-05T05:25:32.157Z,0.90
2019-05-05T05:28:04.232Z,0.90
2019-05-05T05:30:36.725Z,0.80
2019-05-05T05:33:07.317Z,0.80
2019-05-05T05:35:40.850Z,0.80
2019-05-05T05:38:13.857Z,0.90
2019-05-05T05:40:54.123Z,1.10
2019-05-05T05:43:33.507Z,0.70
2019-05-05T05:46:21.743Z,0.90
2019-05-05T05:49:13.549Z,0.93
2019-05-05T05:51:44.723Z,0.80
2019-05-05T05:54:20.296Z,0.73
2019-05-05T05:56:54.519Z,0.90
2019-05-05T05:59:26.388Z,0.80
2019-05-05T06:02:09.032Z,0.80
2019-05-05T06:04:35.378Z,1.00
2019-05-05T06:07:08.982Z,1.00
2019-05-05T06:09:43.742Z,0.90
2019-05-05T06:12:14.781Z,1.00
2019-05-05T06:14:45.927Z,0.90
2019-05-05T06:17:18.697Z,0.90
2019-05-05T06:19:49.039Z,0.90
2019-05-05T06:22:29.411Z,1.00
2019-05-05T06:24:59.810Z,0.83
2019-05-05T06:27:34.285Z,0.90
2019-05-05T06:30:13.771Z,0.87
2019-05-05T06:32:45.591Z,0.93
2019-05-05T06:37:54.771Z,0.90
2019-05-05T06:40:48.611Z,1.00
2019-05-05T06:43:39.122Z,0.90
2019-05-05T06:46:17.282Z,0.90
2019-05-05T06:48:48.081Z,1.00
2019-05-05T06:51:22.072Z,0.90
2019-05-05T06:53:54.029Z,0.90
2019-05-05T06:56:29.358Z,0.90
2019-05-05T06:59:01.645Z,0.90
2019-05-05T07:01:35.044Z,0.97
2019-05-05T07:04:06.075Z,1.10
2019-05-05T07:06:54.208Z,0.90
2019-05-05T07:09:19.035Z,0.80
2019-05-05T07:11:51.326Z,0.90
2019-05-05T07:14:31.224Z,1.00
2019-05-05T07:17:04.909Z,0.90
2019-05-05T07:19:35.362Z,0.80
2019-05-05T07:22:06.294Z,0.80
2019-05-05T07:24:40.738Z,0.80
2019-05-05T07:27:24.174Z,0.80
2019-05-05T07:29:58.978Z,0.83
2019-05-05T07:32:33.846Z,0.90
2019-05-05T07:35:14.587Z,0.90
2019-05-05T07:37:47.726Z,0.80
2019-05-05T07:40:24.131Z,0.80
2019-05-05T07:42:57.028Z,0.90
2019-05-05T07:45:34.315Z,0.87
2019-05-05T07:48:05.559Z,0.83
2019-05-05T07:50:39.671Z,0.70
2019-05-05T07:53:17.916Z,0.90
2019-05-05T07:55:49.122Z,1.10
2019-05-05T07:58:24.813Z,0.90
2019-05-05T08:00:58.086Z,0.90
2019-05-05T08:03:29.920Z,0.80
2019-05-05T08:06:07.101Z,0.90
2019-05-05T08:08:39.790Z,0.93
2019-05-05T08:11:14.701Z,0.97
2019-05-05T08:13:50.217Z,0.83
2019-05-05T08:16:49.981Z,1.00
2019-05-05T08:19:43.877Z,1.10
2019-05-05T08:22:14.986Z,0.90
2019-05-05T08:25:14.498Z,0.80
2019-05-05T08:27:53.842Z,0.80
2019-05-05T08:30:40.250Z,1.10
2019-05-05T08:33:10.662Z,0.90
2019-05-05T08:35:41.669Z,1.10
2019-05-05T08:38:17.367Z,0.90
2019-05-05T08:40:48.512Z,1.07
2019-05-05T08:43:20.269Z,1.00
2019-05-05T08:45:50.801Z,1.03
2019-05-05T08:48:24.641Z,1.07
2019-05-05T08:50:58.615Z,1.03
2019-05-05T08:53:44.103Z,0.97
2019-05-05T08:56:14.458Z,1.23
2019-05-05T08:58:54.556Z,1.07
2019-05-05T09:01:25.619Z,0.90
2019-05-05T09:04:04.068Z,1.10
2019-05-05T09:06:34.472Z,0.90
2019-05-05T09:09:10.068Z,1.00
2019-05-05T09:11:50.154Z,0.90
2019-05-05T09:14:26.390Z,1.00
2019-05-05T09:16:59.863Z,1.10
2019-05-05T09:19:34.401Z,1.00
2019-05-05T09:22:08.817Z,0.90
2019-05-05T09:24:53.659Z,1.10
2019-05-05T09:27:33.843Z,0.80
2019-05-05T09:30:09.329Z,0.90
2019-05-05T09:32:39.743Z,1.10
2019-05-05T09:35:14.255Z,1.03
2019-05-05T09:37:45.317Z,0.87
2019-05-05T09:40:21.617Z,0.97
2019-05-05T09:42:54.151Z,0.80
2019-05-05T09:45:25.262Z,1.00
2019-05-05T09:47:57.266Z,1.10
2019-05-05T09:50:29.499Z,0.90
2019-05-05T09:53:04.047Z,0.90
2019-05-05T09:55:40.241Z,1.00
2019-05-05T09:58:13.947Z,1.00
2019-05-05T10:00:47.739Z,1.00
2019-05-05T10:03:18.566Z,2.03
2019-05-05T10:05:51.332Z,7.13
2019-05-05T10:08:28.031Z,6.33
2019-05-05T10:10:59.961Z,5.43
2019-05-05T10:13:33.568Z,4.93
2019-05-05T10:16:07.592Z,4.97
2019-05-05T10:18:40.188Z,5.13
2019-05-05T10:21:10.874Z,4.57
2019-05-05T10:23:46.546Z,5.20
2019-05-05T10:26:18.256Z,4.23
2019-05-05T10:28:49.463Z,4.77
2019-05-05T10:31:19.973Z,4.90
2019-05-05T10:33:57.393Z,4.47
2019-05-05T10:36:30.827Z,4.20
2019-05-05T10:39:16.367Z,3.97
2019-05-05T10:41:48.260Z,4.30
2019-05-05T10:44:21.824Z,3.67
2019-05-05T10:46:56.978Z,3.93
2019-05-05T10:49:28.507Z,3.50
2019-05-05T10:51:59.975Z,3.70
2019-05-05T10:54:43.820Z,3.40
2019-05-05T10:57:05.154Z,3.07
2019-05-05T10:59:35.851Z,3.17
2019-05-05T11:02:09.796Z,3.30
2019-05-05T11:04:45.631Z,3.30
2019-05-05T11:07:17.153Z,3.40
2019-05-05T11:09:49.132Z,3.10
2019-05-05T11:12:24.660Z,2.90
2019-05-05T11:14:55.236Z,2.90
2019-05-05T11:17:31.060Z,2.93
2019-05-05T11:20:03.743Z,2.67
2019-05-05T11:22:36.012Z,3.13
2019-05-05T11:25:06.950Z,2.70
2019-05-05T11:27:38.765Z,3.13
2019-05-05T11:30:14.596Z,3.00
2019-05-05T11:33:07.702Z,2.73
2019-05-05T11:36:01.013Z,2.73
2019-05-05T11:38:33.730Z,3.30
2019-05-05T11:41:04.958Z,3.07
2019-05-05T11:43:42.093Z,2.60
2019-05-05T11:46:14.257Z,2.77
2019-05-05T11:48:44.979Z,2.30
2019-05-05T11:51:20.058Z,2.40
2019-05-05T11:53:53.862Z,2.50
2019-05-05T11:56:24.038Z,2.70
2019-05-05T11:58:55.094Z,2.40
2019-05-05T12:01:25.686Z,2.40
2019-05-05T12:03:56.495Z,2.70
2019-05-05T12:06:26.978Z,2.57
2019-05-05T12:08:58.574Z,2.70
2019-05-05T12:11:29.175Z,2.40
2019-05-05T12:14:00.901Z,2.57
2019-05-05T12:16:34.608Z,2.23
2019-05-05T12:19:13.779Z,2.50
2019-05-05T12:21:49.762Z,2.33
2019-05-05T12:24:29.883Z,2.20
2019-05-05T12:27:09.343Z,2.37
2019-05-05T12:29:46.506Z,2.30
2019-05-05T12:32:24.034Z,2.30
2019-05-05T12:35:04.185Z,2.60
2019-05-05T12:37:34.659Z,2.50
2019-05-05T12:40:10.007Z,2.40
2019-05-05T12:42:44.006Z,2.23
2019-05-05T12:45:24.046Z,2.33
2019-05-05T12:48:13.354Z,2.20
2019-05-05T12:50:53.555Z,2.13
2019-05-05T12:53:27.038Z,2.07
2019-05-05T12:56:00.075Z,2.30
2019-05-05T12:58:30.703Z,2.20
2019-05-05T13:01:14.907Z,2.10
2019-05-05T13:03:54.287Z,2.17
2019-05-05T13:06:25.173Z,2.57
2019-05-05T13:08:59.888Z,2.60
2019-05-05T13:11:34.368Z,2.67
2019-05-05T13:14:07.118Z,2.53
2019-05-05T13:16:50.660Z,2.20
2019-05-05T13:19:21.455Z,2.30
2019-05-05T13:22:14.118Z,2.40
2019-05-05T13:25:04.587Z,2.70
2019-05-05T13:27:40.663Z,3.00
2019-05-05T13:30:14.153Z,2.80
2019-05-05T13:32:46.019Z,3.00
2019-05-05T13:35:18.414Z,2.73
2019-05-05T13:37:49.159Z,3.10
2019-05-05T13:40:24.695Z,3.27
2019-05-05T13:42:55.603Z,2.90
2019-05-05T13:45:50.775Z,3.33
2019-05-05T13:48:23.987Z,3.00
2019-05-05T13:51:04.149Z,3.37
2019-05-05T13:53:34.662Z,3.23
2019-05-05T13:56:11.820Z,2.80
2019-05-05T13:58:40.855Z,2.90
2019-05-05T14:01:11.361Z,2.80
2019-05-05T14:03:44.501Z,2.80
2019-05-05T14:06:19.629Z,2.63
2019-05-05T14:08:54.949Z,2.87
2019-05-05T14:11:26.490Z,2.90
2019-05-05T14:14:07.829Z,2.70
2019-05-05T14:16:44.946Z,2.60
2019-05-05T14:19:21.741Z,2.87
2019-05-05T14:21:57.809Z,2.60
2019-05-05T14:24:50.251Z,2.50
2019-05-05T14:27:23.864Z,2.50
2019-05-05T14:30:25.952Z,2.43
2019-05-05T14:32:59.026Z,2.50
2019-05-05T14:36:00.155Z,2.70
2019-05-05T14:39:09.118Z,2.60
2019-05-05T14:41:44.678Z,2.40
2019-05-05T14:44:15.756Z,2.23
2019-05-05T14:46:49.146Z,2.23
2019-05-05T14:49:24.631Z,2.30
2019-05-05T14:51:55.980Z,2.07
2019-05-05T14:54:28.865Z,2.30
2019-05-05T14:56:59.565Z,2.50
2019-05-05T14:59:31.471Z,2.50
2019-05-05T15:02:04.069Z,2.40
2019-05-05T15:04:37.907Z,2.93
2019-05-05T15:07:20.690Z,2.47
2019-05-05T15:09:58.791Z,2.40
2019-05-05T15:12:40.617Z,2.70
2019-05-05T15:15:14.325Z,2.40
2019-05-05T15:17:45.015Z,2.67
2019-05-05T15:20:18.591Z,2.80
2019-05-05T15:22:54.105Z,2.53
2019-05-05T15:25:26.071Z,2.47
2019-05-05T15:27:56.534Z,2.90
2019-05-05T15:30:30.948Z,2.60
2019-05-05T15:33:01.371Z,2.63
2019-05-05T15:35:34.219Z,2.67
2019-05-05T15:38:04.760Z,2.57
2019-05-05T15:40:37.393Z,2.87
2019-05-05T15:43:08.517Z,2.60
2019-05-05T15:45:45.194Z,2.90
2019-05-05T15:48:17.130Z,2.53
2019-05-05T15:50:49.952Z,2.67
2019-05-05T15:53:23.500Z,2.50
2019-05-05T15:55:54.691Z,2.63
2019-05-05T15:58:27.877Z,2.70
2019-05-05T16:00:58.622Z,2.40
2019-05-05T16:03:43.565Z,2.63
2019-05-05T16:06:20.217Z,2.87
2019-05-05T16:08:53.873Z,2.80
2019-05-05T16:11:26.836Z,2.10
2019-05-05T16:14:12.109Z,2.60
2019-05-05T16:17:06.332Z,2.43
2019-05-05T16:20:09.916Z,2.70
2019-05-05T16:22:49.840Z,2.47
2019-05-05T16:25:20.791Z,2.63
2019-05-05T16:27:51.179Z,2.30
2019-05-05T16:30:25.230Z,2.53
2019-05-05T16:33:00.728Z,2.60
2019-05-05T16:35:34.271Z,2.60
2019-05-05T16:38:10.837Z,2.80
2019-05-05T16:40:41.888Z,2.80
2019-05-05T16:43:16.247Z,2.63
2019-05-05T16:45:49.837Z,2.70
2019-05-05T16:48:25.355Z,2.53
2019-05-05T16:51:00.758Z,2.30
2019-05-05T16:53:37.180Z,2.43
2019-05-05T16:56:14.028Z,2.40
2019-05-05T16:58:47.715Z,2.90
2019-05-05T17:01:18.493Z,2.50
2019-05-05T17:03:48.761Z,2.43
2019-05-05T17:06:19.966Z,2.43
2019-05-05T17:08:50.353Z,2.67
2019-05-05T17:11:21.101Z,2.47
2019-05-05T17:14:01.559Z,2.30
2019-05-05T17:16:54.724Z,2.13
2019-05-05T17:19:44.406Z,2.43
2019-05-05T17:22:25.399Z,2.40
2019-05-05T17:24:56.315Z,2.30
2019-05-05T17:27:28.596Z,1.93
2019-05-05T17:29:59.002Z,2.30
2019-05-05T17:32:34.442Z,2.20
2019-05-05T17:35:05.407Z,2.53
2019-05-05T17:37:38.479Z,2.40
2019-05-05T17:40:33.668Z,2.47
2019-05-05T17:43:41.759Z,2.20
2019-05-05T17:46:34.436Z,2.10
2019-05-05T17:49:22.923Z,2.30
2019-05-05T17:52:22.536Z,2.40
2019-05-05T17:54:56.945Z,2.20
2019-05-05T17:57:28.428Z,2.03
2019-05-05T18:00:01.066Z,2.27
2019-05-05T18:02:34.366Z,2.47
2019-05-05T18:05:05.506Z,2.20
2019-05-05T18:07:44.066Z,2.10
2019-05-05T18:10:24.026Z,2.30
2019-05-05T18:13:23.137Z,2.20
2019-05-05T18:16:00.159Z,2.30
2019-05-05T18:18:32.818Z,2.10
2019-05-05T18:21:03.451Z,2.00
2019-05-05T18:23:43.837Z,2.47
2019-05-05T18:26:18.756Z,2.10
2019-05-05T18:28:49.130Z,2.10
2019-05-05T18:31:21.219Z,2.10
2019-05-05T18:33:54.367Z,2.07
2019-05-05T18:36:25.581Z,2.17
2019-05-05T18:38:59.994Z,1.90
2019-05-05T18:41:52.770Z,2.10
2019-05-05T18:44:29.712Z,2.07
2019-05-05T18:47:28.847Z,2.10
2019-05-05T18:50:04.166Z,2.10
2019-05-05T18:52:36.944Z,1.90
2019-05-05T18:55:08.360Z,2.03
2019-05-05T18:57:43.507Z,2.20
2019-05-05T19:00:20.841Z,1.97
2019-05-05T19:03:01.212Z,2.13
2019-05-05T19:05:49.814Z,2.10
2019-05-05T19:08:36.101Z,2.20
2019-05-05T19:11:06.786Z,2.10
2019-05-05T19:13:37.719Z,2.00
2019-05-05T19:16:08.117Z,2.30
2019-05-05T19:18:39.176Z,2.10
2019-05-05T19:21:18.043Z,1.90
2019-05-05T19:23:48.951Z,2.50
2019-05-05T19:26:21.362Z,2.10
2019-05-05T19:28:57.883Z,2.10
2019-05-05T19:31:36.562Z,2.10
2019-05-05T19:34:07.703Z,2.20
2019-05-05T19:36:38.371Z,2.40
2019-05-05T19:39:13.717Z,2.30
2019-05-05T19:41:46.914Z,1.90
2019-05-05T19:44:18.901Z,2.30
2019-05-05T19:46:54.851Z,2.30
2019-05-05T19:49:25.741Z,2.20
2019-05-05T19:51:56.120Z,2.30
2019-05-05T19:54:28.215Z,2.20
2019-05-05T19:57:03.681Z,2.30
2019-05-05T19:59:35.810Z,2.30
2019-05-05T20:02:07.571Z,2.30
2019-05-05T20:04:40.040Z,2.30
2019-05-05T20:07:11.309Z,2.53
2019-05-05T20:09:43.604Z,2.50
2019-05-05T20:12:15.389Z,2.50
2019-05-05T20:14:50.312Z,2.30
2019-05-05T20:17:28.225Z,2.57
2019-05-05T20:20:04.310Z,2.40
2019-05-05T20:22:34.910Z,2.17
2019-05-05T20:25:07.876Z,2.30
2019-05-05T20:27:39.755Z,2.03
2019-05-05T20:30:10.246Z,2.27
2019-05-05T20:32:58.983Z,2.30
2019-05-05T20:35:48.196Z,2.30
2019-05-05T20:38:29.074Z,2.47
2019-05-05T20:41:15.966Z,2.37
2019-05-05T20:43:48.493Z,2.50
2019-05-05T20:46:23.535Z,2.50
2019-05-05T20:48:56.254Z,2.20
2019-05-05T20:51:27.591Z,2.60
2019-05-05T20:54:04.785Z,2.70
2019-05-05T20:56:36.184Z,2.53
2019-05-05T20:59:07.389Z,2.60
2019-05-05T21:01:37.727Z,2.50
2019-05-05T21:04:08.669Z,2.50
2019-05-05T21:06:40.540Z,2.70
2019-05-05T21:09:13.737Z,2.47
2019-05-05T21:11:44.063Z,2.50
2019-05-05T21:14:31.176Z,2.30
2019-05-05T21:16:54.560Z,2.50
2019-05-05T21:19:24.829Z,2.50
2019-05-05T21:21:57.579Z,2.60
2019-05-05T21:24:28.139Z,2.73
2019-05-05T21:27:04.462Z,2.50
2019-05-05T21:29:41.927Z,2.40
2019-05-05T21:32:08.272Z,2.40
2019-05-05T21:34:38.486Z,2.60
2019-05-05T21:37:10.529Z,2.50
2019-05-05T21:39:41.023Z,2.80
2019-05-05T21:42:14.052Z,2.80
2019-05-05T21:44:47.855Z,2.47
2019-05-05T21:47:19.655Z,2.70
2019-05-05T21:49:50.136Z,2.60
2019-05-05T21:52:46.776Z,2.67
2019-05-05T21:55:28.866Z,2.50
2019-05-05T21:58:25.281Z,3.00
2019-05-05T22:01:04.215Z,2.60
2019-05-05T22:03:39.434Z,2.80
2019-05-05T22:06:14.526Z,2.80
2019-05-05T22:08:48.336Z,2.60
2019-05-05T22:11:24.101Z,3.10
2019-05-05T22:13:54.776Z,2.93
2019-05-05T22:16:35.578Z,2.80
2019-05-05T22:22:22.101Z,3.13
2019-05-05T22:24:56.454Z,2.97
2019-05-05T22:27:27.353Z,3.30
2019-05-05T22:30:09.617Z,2.97
2019-05-05T22:32:37.011Z,3.20
2019-05-05T22:35:08.034Z,3.00
2019-05-05T22:37:38.454Z,3.10
2019-05-05T22:40:13.844Z,3.20
2019-05-05T22:42:44.998Z,3.10
2019-05-05T22:45:15.468Z,3.20
2019-05-05T22:47:46.755Z,3.40
2019-05-05T22:50:17.449Z,3.20
2019-05-05T22:52:48.442Z,3.20
2019-05-05T22:55:21.867Z,3.27
2019-05-05T22:57:56.709Z,3.10
2019-05-05T23:00:29.639Z,3.37
2019-05-05T23:03:08.345Z,3.40
2019-05-05T23:05:48.136Z,3.30
2019-05-05T23:08:24.467Z,3.57
2019-05-05T23:10:58.299Z,3.40
2019-05-05T23:13:33.861Z,3.53
2019-05-05T23:16:12.003Z,3.40
2019-05-05T23:18:45.350Z,3.60
2019-05-05T23:21:36.514Z,3.20
2019-05-05T23:24:28.158Z,3.30
2019-05-05T23:27:01.221Z,3.50
2019-05-05T23:29:34.134Z,3.50
2019-05-05T23:32:05.975Z,3.30
2019-05-05T23:34:37.760Z,3.50
2019-05-05T23:37:09.535Z,3.40
2019-05-05T23:39:42.898Z,3.07
2019-05-05T23:42:14.698Z,3.77
2019-05-05T23:44:45.955Z,3.50
2019-05-05T23:47:16.725Z,3.40
2019-05-05T23:49:48.013Z,3.43
2019-05-05T23:52:21.052Z,3.37
2019-05-05T23:54:53.431Z,3.67
2019-05-05T23:57:24.595Z,3.67
2019-05-05T23:59:55.729Z,3.03
